createdAt,value
2019-02-26T00:04:29.775Z,4.30
2019-02-26T00:09:34.622Z,4.30
2019-02-26T00:14:34.867Z,4.20
2019-02-26T00:19:36.173Z,4.20
2019-02-26T00:24:38.155Z,4.10
2019-02-26T00:29:40.825Z,4.10
2019-02-26T00:34:42.174Z,4.10
2019-02-26T00:39:45.178Z,4.00
2019-02-26T00:44:46.803Z,4.00
2019-02-26T00:49:48.559Z,4.00
2019-02-26T00:54:53.619Z,3.90
2019-02-26T00:59:54.536Z,3.90
2019-02-26T01:04:55.972Z,3.90
2019-02-26T01:09:59.102Z,3.80
2019-02-26T01:15:02.566Z,3.80
2019-02-26T01:20:08.980Z,3.80
2019-02-26T01:25:12.745Z,3.70
2019-02-26T01:30:18.202Z,3.70
2019-02-26T01:35:18.326Z,3.60
2019-02-26T01:40:21.664Z,3.60
2019-02-26T01:45:25.001Z,3.60
2019-02-26T01:50:45.188Z,3.60
2019-02-26T01:55:48.316Z,3.50
2019-02-26T02:00:50.435Z,3.50
2019-02-26T02:05:53.004Z,3.50
2019-02-26T02:10:58.923Z,3.50
2019-02-26T02:15:59.720Z,3.40
2019-02-26T02:21:01.392Z,3.40
2019-02-26T02:26:04.388Z,3.40
2019-02-26T02:31:06.223Z,3.40
2019-02-26T02:36:11.512Z,3.30
2019-02-26T02:41:10.713Z,3.30
2019-02-26T02:46:11.988Z,3.30
2019-02-26T02:51:19.528Z,3.20
2019-02-26T02:56:20.838Z,3.20
2019-02-26T03:01:24.526Z,3.20
2019-02-26T03:06:29.519Z,3.20
2019-02-26T03:11:28.658Z,3.10
2019-02-26T03:16:30.868Z,3.10
2019-02-26T03:21:32.154Z,3.10
2019-02-26T03:26:33.555Z,3.10
2019-02-26T03:31:40.518Z,3.10
2019-02-26T03:36:40.204Z,3.20
2019-02-26T03:41:43.087Z,3.30
2019-02-26T03:47:03.573Z,3.30
2019-02-26T03:52:04.862Z,3.30
2019-02-26T03:57:06.401Z,3.20
2019-02-26T04:02:09.497Z,3.10
2019-02-26T04:07:11.321Z,3.10
2019-02-26T04:12:13.573Z,3.10
2019-02-26T04:17:15.828Z,3.00
2019-02-26T04:22:26.352Z,3.00
2019-02-26T04:27:52.016Z,2.90
2019-02-26T04:33:30.338Z,2.90
2019-02-26T04:39:03.923Z,2.80
2019-02-26T04:44:40.854Z,2.80
2019-02-26T04:49:42.950Z,2.70
2019-02-26T04:54:44.710Z,2.70
2019-02-26T04:59:46.217Z,2.70
2019-02-26T05:04:47.633Z,2.60
2019-02-26T05:09:51.128Z,2.60
2019-02-26T05:14:52.095Z,2.60
2019-02-26T05:19:53.489Z,2.50
2019-02-26T05:24:54.909Z,2.50
2019-02-26T05:29:56.284Z,2.50
2019-02-26T05:34:57.605Z,2.50
2019-02-26T05:39:58.981Z,2.40
2019-02-26T05:45:02.987Z,2.40
2019-02-26T05:50:09.409Z,2.40
2019-02-26T05:55:13.937Z,2.40
2019-02-26T06:00:17.230Z,2.30
2019-02-26T06:05:20.302Z,2.30
2019-02-26T06:10:21.553Z,2.30
2019-02-26T06:15:25.891Z,2.30
2019-02-26T06:20:29.216Z,2.20
2019-02-26T06:25:31.023Z,2.30
2019-02-26T06:30:32.365Z,2.30
2019-02-26T06:35:34.162Z,2.30
2019-02-26T06:40:39.121Z,2.30
2019-02-26T06:45:41.273Z,2.30
2019-02-26T06:50:43.527Z,2.20
2019-02-26T06:55:45.043Z,2.20
2019-02-26T07:00:48.167Z,2.30
2019-02-26T07:05:49.787Z,2.30
2019-02-26T07:10:51.174Z,2.40
2019-02-26T07:15:52.498Z,2.40
2019-02-26T07:20:55.979Z,2.40
2019-02-26T07:25:56.989Z,2.50
2019-02-26T07:30:59.873Z,2.60
2019-02-26T07:36:03.955Z,2.70
2019-02-26T07:41:06.148Z,2.80
2019-02-26T07:46:09.464Z,2.90
2019-02-26T07:51:10.931Z,3.00
2019-02-26T07:56:12.246Z,3.20
2019-02-26T08:01:13.553Z,3.30
2019-02-26T08:06:14.853Z,3.50
2019-02-26T08:11:16.261Z,3.70
2019-02-26T08:16:18.348Z,3.80
2019-02-26T08:21:22.222Z,4.10
2019-02-26T08:26:24.894Z,4.40
2019-02-26T08:31:27.972Z,4.80
2019-02-26T08:36:29.363Z,5.30
2019-02-26T08:41:30.675Z,5.80
2019-02-26T08:46:32.070Z,6.40
2019-02-26T08:51:33.346Z,7.10
2019-02-26T08:56:36.391Z,7.80
2019-02-26T09:01:37.874Z,8.40
2019-02-26T09:06:39.262Z,9.00
2019-02-26T09:11:40.668Z,9.50
2019-02-26T09:16:42.027Z,9.90
2019-02-26T09:21:45.256Z,10.10
2019-02-26T09:26:47.382Z,10.40
2019-02-26T09:31:49.984Z,10.50
2019-02-26T09:36:53.055Z,10.60
2019-02-26T09:41:57.001Z,10.70
2019-02-26T09:47:00.052Z,10.80
2019-02-26T09:52:01.556Z,10.90
2019-02-26T09:57:04.354Z,11.00
2019-02-26T10:02:06.132Z,11.10
2019-02-26T10:07:09.890Z,11.20
2019-02-26T10:12:15.119Z,11.30
2019-02-26T10:17:14.655Z,11.40
2019-02-26T10:22:17.363Z,11.60
2019-02-26T10:27:18.960Z,11.80
2019-02-26T10:32:20.817Z,12.00
2019-02-26T10:37:22.251Z,12.10
2019-02-26T10:42:23.652Z,12.20
2019-02-26T10:47:27.327Z,12.40
2019-02-26T10:52:31.057Z,12.40
2019-02-26T10:57:34.238Z,12.60
2019-02-26T11:02:40.693Z,12.70
2019-02-26T11:07:42.338Z,12.90
2019-02-26T11:12:45.789Z,13.00
2019-02-26T11:17:48.548Z,13.10
2019-02-26T11:22:52.067Z,13.20
2019-02-26T11:27:53.647Z,13.30
2019-02-26T11:32:58.740Z,13.50
2019-02-26T11:37:59.910Z,13.70
2019-02-26T11:43:10.896Z,14.00
2019-02-26T11:48:06.643Z,14.10
2019-02-26T11:53:12.154Z,14.10
2019-02-26T11:58:15.899Z,14.20
2019-02-26T12:03:22.654Z,14.30
2019-02-26T12:08:26.659Z,14.50
2019-02-26T12:13:29.142Z,14.70
2019-02-26T12:18:30.750Z,14.80
2019-02-26T12:23:34.524Z,14.80
2019-02-26T12:28:37.639Z,14.80
2019-02-26T12:33:39.206Z,14.90
2019-02-26T12:38:40.985Z,14.90
2019-02-26T12:43:46.184Z,14.90
2019-02-26T12:48:47.725Z,14.90
2019-02-26T12:53:50.159Z,15.00
2019-02-26T12:58:54.569Z,15.10
2019-02-26T13:03:55.602Z,15.00
2019-02-26T13:08:56.996Z,15.00
2019-02-26T13:13:59.863Z,15.00
2019-02-26T13:19:04.523Z,15.10
2019-02-26T13:29:08.057Z,15.10
2019-02-26T13:34:13.863Z,15.10
2019-02-26T13:39:21.922Z,15.20
2019-02-26T13:44:16.394Z,15.30
2019-02-26T13:49:18.642Z,15.40
2019-02-26T13:54:20.185Z,15.50
2019-02-26T13:59:21.639Z,15.40
2019-02-26T14:04:23.344Z,15.50
2019-02-26T14:09:43.761Z,15.50
2019-02-26T14:14:45.615Z,15.60
2019-02-26T14:19:48.342Z,15.60
2019-02-26T14:24:49.783Z,15.60
2019-02-26T14:29:53.038Z,15.50
2019-02-26T14:34:56.473Z,15.50
2019-02-26T14:39:58.985Z,15.50
2019-02-26T14:45:03.712Z,15.50
2019-02-26T14:50:11.165Z,15.60
2019-02-26T14:55:16.847Z,15.70
2019-02-26T15:00:27.018Z,15.70
2019-02-26T15:05:30.267Z,15.70
2019-02-26T15:10:31.903Z,15.70
2019-02-26T15:15:33.240Z,15.80
2019-02-26T15:20:34.743Z,15.90
2019-02-26T15:25:36.818Z,15.80
2019-02-26T15:30:39.147Z,15.90
2019-02-26T15:35:43.010Z,15.90
2019-02-26T15:40:45.107Z,15.80
2019-02-26T15:45:51.988Z,15.70
2019-02-26T15:50:51.693Z,15.70
2019-02-26T15:55:53.117Z,15.60
2019-02-26T16:00:55.518Z,15.60
2019-02-26T16:05:56.877Z,15.60
2019-02-26T16:11:00.264Z,15.60
2019-02-26T16:16:05.971Z,15.70
2019-02-26T16:21:07.611Z,15.70
2019-02-26T16:26:09.663Z,15.60
2019-02-26T16:31:11.959Z,15.40
2019-02-26T16:36:13.553Z,15.30
2019-02-26T16:41:15.602Z,15.20
2019-02-26T16:46:19.221Z,15.10
2019-02-26T16:51:21.750Z,14.90
2019-02-26T16:56:25.547Z,14.80
2019-02-26T17:01:27.729Z,14.80
2019-02-26T17:06:29.370Z,14.70
2019-02-26T17:11:33.432Z,14.60
2019-02-26T17:16:35.039Z,14.40
2019-02-26T17:21:36.718Z,14.40
2019-02-26T17:26:38.313Z,14.20
2019-02-26T17:31:39.864Z,13.90
2019-02-26T17:36:41.308Z,13.70
2019-02-26T17:41:44.819Z,13.50
2019-02-26T17:46:48.257Z,13.20
2019-02-26T17:51:50.820Z,13.00
2019-02-26T17:56:53.550Z,12.70
2019-02-26T18:01:54.970Z,12.40
2019-02-26T18:06:57.841Z,12.10
2019-02-26T18:12:02.270Z,11.80
2019-02-26T18:17:03.549Z,11.50
2019-02-26T18:22:05.224Z,11.30
2019-02-26T18:27:06.995Z,11.10
2019-02-26T18:32:11.158Z,10.90
2019-02-26T18:37:12.600Z,10.60
2019-02-26T18:42:15.598Z,10.40
2019-02-26T18:47:17.340Z,10.20
2019-02-26T18:52:18.995Z,10.10
2019-02-26T18:57:21.480Z,9.90
2019-02-26T19:02:23.137Z,9.70
2019-02-26T19:07:24.568Z,9.50
2019-02-26T19:12:26.125Z,9.40
2019-02-26T19:17:27.724Z,9.20
2019-02-26T19:22:29.212Z,9.10
2019-02-26T19:27:30.683Z,9.00
2019-02-26T19:32:34.417Z,8.80
2019-02-26T19:37:35.920Z,8.70
2019-02-26T19:42:37.471Z,8.60
2019-02-26T19:47:39.222Z,8.50
2019-02-26T19:52:42.653Z,8.40
2019-02-26T19:57:44.432Z,8.30
2019-02-26T20:02:47.856Z,8.20
2019-02-26T20:07:53.053Z,8.10
2019-02-26T20:12:54.852Z,8.00
2019-02-26T20:18:00.130Z,7.90
2019-02-26T20:23:05.185Z,7.80
2019-02-26T20:28:08.600Z,7.80
2019-02-26T20:33:09.997Z,7.70
2019-02-26T20:38:11.279Z,7.60
2019-02-26T20:43:12.746Z,7.60
2019-02-26T20:48:14.159Z,7.50
2019-02-26T20:53:15.687Z,7.50
2019-02-26T20:58:17.197Z,7.40
2019-02-26T21:03:18.624Z,7.30
2019-02-26T21:08:21.377Z,7.20
2019-02-26T21:13:23.807Z,7.20
2019-02-26T21:18:25.410Z,7.10
2019-02-26T21:23:28.497Z,7.10
2019-02-26T21:28:33.538Z,7.10
2019-02-26T21:33:33.739Z,7.00
2019-02-26T21:38:38.590Z,7.00
2019-02-26T21:43:40.359Z,7.00
2019-02-26T21:49:00.220Z,7.00
2019-02-26T21:54:03.485Z,7.00
2019-02-26T21:59:05.697Z,7.00
2019-02-26T22:04:06.994Z,6.90
2019-02-26T22:09:08.442Z,6.90
2019-02-26T22:14:11.960Z,6.90
2019-02-26T22:19:20.641Z,6.90
2019-02-26T22:24:22.105Z,6.90
2019-02-26T22:29:23.444Z,6.80
2019-02-26T22:34:24.867Z,6.80
2019-02-26T22:39:28.902Z,6.70
2019-02-26T22:44:30.298Z,6.70
2019-02-26T22:49:33.236Z,6.70
2019-02-26T22:54:36.657Z,6.70
2019-02-26T22:59:38.645Z,6.70
2019-02-26T23:04:42.167Z,6.70
2019-02-26T23:09:44.764Z,6.70
2019-02-26T23:14:46.814Z,6.70
2019-02-26T23:19:50.142Z,6.60
2019-02-26T23:24:51.684Z,6.60
2019-02-26T23:29:53.273Z,6.50
2019-02-26T23:35:03.445Z,6.40
2019-02-26T23:40:09.935Z,6.40
2019-02-26T23:45:11.783Z,6.30
2019-02-26T23:50:15.916Z,6.30
2019-02-26T23:55:17.396Z,6.40
